Time;durP1;ratioP1;P1;durP2;ratioP2;P2;SDS_P1;SDS_P2;PMS_P1;PMS_P2;Temp;Humidity;BMP_temperature;BMP_pressure;BME280_temperature;BME280_humidity;BME280_pressure;Samples;Min_cycle;Max_cycle;Signal;HPM_P1;HPM_P2
2023/07/22 00:01:38;;;;;;;0.20;0.00;;;;;;;;;;5015772;28;20431;-84
2023/07/22 00:04:04;;;;;;;0.30;0.20;;;;;;;;;;5000107;28;20056;-83
2023/07/22 00:06:30;;;;;;;0.75;0.43;;;;;;;;;;5011121;28;20446;-82
2023/07/22 00:08:56;;;;;;;0.20;0.10;;;;;;;;;;4990535;28;20037;-82
2023/07/22 00:11:22;;;;;;;0.20;0.10;;;;;;;;;;5000585;28;20033;-82
2023/07/22 00:13:48;;;;;;;0.20;0.20;;;;;;;;;;4999907;28;20628;-82
2023/07/22 00:16:17;;;;;;;0.20;0.10;;;;;;;;;;5007281;28;20049;-83
2023/07/22 00:18:43;;;;;;;0.22;0.22;;;;;;;;;;4997994;28;20052;-82
2023/07/22 00:21:09;;;;;;;0.20;0.10;;;;;;;;;;4998530;28;20148;-82
2023/07/22 00:23:35;;;;;;;0.20;0.10;;;;;;;;;;4996829;28;20156;-82
2023/07/22 00:26:02;;;;;;;0.35;0.25;;;;;;;;;;5007106;28;20573;-81
2023/07/22 00:28:28;;;;;;;0.20;0.00;;;;;;;;;;5008184;28;20509;-81
2023/07/22 00:30:54;;;;;;;0.20;0.10;;;;;;;;;;5024415;28;20165;-81
2023/07/22 00:33:21;;;;;;;0.20;0.10;;;;;;;;;;5012335;28;20067;-82
2023/07/22 00:35:51;;;;;;;0.20;0.05;;;;;;;;;;4993932;28;20128;-81
2023/07/22 00:38:17;;;;;;;0.20;0.00;;;;;;;;;;5006904;28;20048;-82
2023/07/22 00:40:43;;;;;;;0.20;0.00;;;;;;;;;;5021423;28;20039;-82
2023/07/22 00:43:09;;;;;;;0.20;0.10;;;;;;;;;;5004179;28;20040;-81
2023/07/22 00:45:35;;;;;;;0.20;0.03;;;;;;;;;;5007347;28;20043;-81
2023/07/22 00:48:02;;;;;;;0.20;0.08;;;;;;;;;;5006527;28;20047;-81
2023/07/22 00:50:28;;;;;;;0.20;0.05;;;;;;;;;;5023760;28;20059;-81
2023/07/22 00:52:54;;;;;;;0.20;0.10;;;;;;;;;;5006253;28;20041;-81
2023/07/22 00:55:20;;;;;;;0.20;0.05;;;;;;;;;;5007873;28;20041;-81
2023/07/22 00:57:47;;;;;;;0.20;0.05;;;;;;;;;;5021938;28;20060;-81
2023/07/22 01:00:15;;;;;;;0.20;0.10;;;;;;;;;;5006883;28;20040;-80
2023/07/22 01:02:41;;;;;;;0.43;0.22;;;;;;;;;;5014365;28;20102;-81
2023/07/22 01:05:10;;;;;;;0.20;0.10;;;;;;;;;;5015992;28;20139;-80
2023/07/22 01:07:36;;;;;;;0.20;0.10;;;;;;;;;;5008374;28;20060;-80
2023/07/22 01:10:03;;;;;;;0.20;0.10;;;;;;;;;;4993610;28;20037;-80
2023/07/22 01:12:29;;;;;;;0.40;0.40;;;;;;;;;;4995719;28;20046;-80
2023/07/22 01:14:55;;;;;;;0.20;0.10;;;;;;;;;;5004099;28;20097;-80
2023/07/22 01:17:21;;;;;;;0.20;0.10;;;;;;;;;;5005646;28;20048;-80
2023/07/22 01:19:47;;;;;;;0.20;0.10;;;;;;;;;;5005841;28;20132;-79
2023/07/22 01:22:13;;;;;;;0.22;0.05;;;;;;;;;;5013547;28;20067;-79
2023/07/22 01:24:39;;;;;;;0.20;0.10;;;;;;;;;;4990813;28;20278;-79
2023/07/22 01:27:10;;;;;;;0.40;0.20;;;;;;;;;;5021794;28;20306;-80
2023/07/22 01:29:36;;;;;;;0.20;0.10;;;;;;;;;;4999546;28;20401;-80
2023/07/22 01:32:03;;;;;;;0.20;0.13;;;;;;;;;;5019477;28;20667;-80
2023/07/22 01:34:31;;;;;;;0.20;0.03;;;;;;;;;;5017483;28;20034;-80
2023/07/22 01:36:57;;;;;;;0.20;0.10;;;;;;;;;;5003776;28;20242;-80
2023/07/22 01:39:23;;;;;;;4.47;0.28;;;;;;;;;;5021987;28;20402;-80
2023/07/22 01:41:49;;;;;;;0.20;0.10;;;;;;;;;;5013064;28;21009;-80
2023/07/22 01:44:16;;;;;;;0.20;0.10;;;;;;;;;;5021671;28;20602;-80
2023/07/22 01:46:42;;;;;;;0.20;0.00;;;;;;;;;;5009724;28;20592;-80
2023/07/22 01:49:10;;;;;;;0.20;0.20;;;;;;;;;;5027281;28;20044;-79
2023/07/22 01:51:43;;;;;;;0.20;0.20;;;;;;;;;;5016553;28;20045;-80
2023/07/22 01:54:09;;;;;;;;;;;;;;;;;;5011719;28;22214;-80
2023/07/22 01:56:36;;;;;;;0.20;0.10;;;;;;;;;;5021932;28;19917;-80
2023/07/22 01:59:02;;;;;;;0.20;0.20;;;;;;;;;;4993153;28;20912;-80
2023/07/22 02:01:28;;;;;;;0.20;0.00;;;;;;;;;;5007167;28;20395;-79
2023/07/22 02:03:55;;;;;;;0.38;0.30;;;;;;;;;;5023150;28;20041;-80
2023/07/22 02:06:21;;;;;;;0.20;0.10;;;;;;;;;;5008791;28;20043;-80
2023/07/22 02:08:47;;;;;;;0.20;0.10;;;;;;;;;;5008154;28;20602;-80
2023/07/22 02:11:13;;;;;;;0.20;0.05;;;;;;;;;;5008067;28;20261;-80
2023/07/22 02:13:39;;;;;;;0.30;0.30;;;;;;;;;;5021724;28;20515;-80
2023/07/22 02:16:05;;;;;;;0.20;0.10;;;;;;;;;;5020043;28;20032;-80
2023/07/22 02:18:31;;;;;;;0.20;0.10;;;;;;;;;;5004378;28;20389;-79
2023/07/22 02:20:58;;;;;;;0.20;0.10;;;;;;;;;;5017316;28;20321;-80
2023/07/22 02:23:24;;;;;;;0.93;0.45;;;;;;;;;;5002818;28;20048;-79
2023/07/22 02:25:54;;;;;;;1.05;0.95;;;;;;;;;;5004720;28;20043;-79
2023/07/22 02:28:24;;;;;;;0.20;0.03;;;;;;;;;;5008751;28;20682;-80
2023/07/22 02:30:52;;;;;;;0.20;0.10;;;;;;;;;;5007840;28;20504;-80
2023/07/22 02:33:18;;;;;;;0.20;0.10;;;;;;;;;;5027696;28;20048;-80
2023/07/22 02:35:44;;;;;;;0.20;0.00;;;;;;;;;;5025846;28;20040;-80
2023/07/22 02:38:10;;;;;;;0.20;0.10;;;;;;;;;;5001729;28;20045;-79
2023/07/22 02:40:39;;;;;;;0.20;0.00;;;;;;;;;;5025563;28;20503;-79
2023/07/22 02:43:06;;;;;;;5.47;0.60;;;;;;;;;;5014716;28;20053;-80
2023/07/22 02:45:33;;;;;;;0.20;0.10;;;;;;;;;;4996129;28;20246;-80
2023/07/22 02:47:59;;;;;;;0.20;0.10;;;;;;;;;;4996113;28;20076;-79
2023/07/22 02:50:25;;;;;;;1.27;0.90;;;;;;;;;;5014089;28;20033;-79
2023/07/22 02:52:51;;;;;;;0.30;0.20;;;;;;;;;;4997498;28;20597;-79
2023/07/22 02:55:21;;;;;;;0.40;0.40;;;;;;;;;;5000074;28;20064;-79
2023/07/22 02:57:48;;;;;;;0.20;0.10;;;;;;;;;;5002989;28;20081;-79
2023/07/22 03:00:23;;;;;;;0.20;0.10;;;;;;;;;;5005250;28;20075;-79
2023/07/22 03:02:49;;;;;;;0.20;0.10;;;;;;;;;;5013255;28;20513;-79
2023/07/22 03:05:16;;;;;;;0.38;0.25;;;;;;;;;;5019316;28;20607;-80
2023/07/22 03:07:42;;;;;;;0.20;0.03;;;;;;;;;;5011942;28;20069;-79
2023/07/22 03:10:08;;;;;;;0.20;0.10;;;;;;;;;;5006734;28;20033;-79
2023/07/22 03:12:35;;;;;;;0.20;0.17;;;;;;;;;;5011746;28;20069;-79
2023/07/22 03:15:01;;;;;;;0.20;0.10;;;;;;;;;;5014040;28;20386;-80
2023/07/22 03:17:27;;;;;;;0.68;0.40;;;;;;;;;;5003789;28;20571;-79
2023/07/22 03:19:53;;;;;;;0.30;0.17;;;;;;;;;;5004256;28;20048;-79
2023/07/22 03:22:19;;;;;;;0.20;0.10;;;;;;;;;;5019815;28;20052;-79
2023/07/22 03:24:46;;;;;;;0.32;0.32;;;;;;;;;;5008296;28;20044;-79
2023/07/22 03:27:12;;;;;;;0.20;0.10;;;;;;;;;;5021143;28;20120;-79
2023/07/22 03:29:39;;;;;;;0.20;0.10;;;;;;;;;;5018268;28;20075;-79
2023/07/22 03:32:05;;;;;;;0.20;0.10;;;;;;;;;;5021792;28;20625;-79
2023/07/22 03:34:32;;;;;;;0.30;0.30;;;;;;;;;;5018489;28;20040;-80
2023/07/22 03:36:58;;;;;;;0.20;0.10;;;;;;;;;;4996323;28;20072;-79
2023/07/22 03:39:24;;;;;;;0.50;0.35;;;;;;;;;;5017299;28;20700;-79
2023/07/22 03:41:50;;;;;;;0.52;0.30;;;;;;;;;;5020907;28;20052;-79
2023/07/22 03:44:16;;;;;;;0.20;0.10;;;;;;;;;;5008156;28;20568;-79
2023/07/22 03:46:42;;;;;;;0.43;0.43;;;;;;;;;;5024035;28;20053;-79
2023/07/22 03:49:08;;;;;;;0.30;0.28;;;;;;;;;;5021971;28;20063;-80
2023/07/22 03:51:34;;;;;;;0.20;0.10;;;;;;;;;;5017735;28;20041;-79
2023/07/22 03:54:01;;;;;;;0.20;0.10;;;;;;;;;;5004898;28;20425;-79
2023/07/22 03:56:27;;;;;;;0.30;0.30;;;;;;;;;;5021355;28;20033;-79
2023/07/22 03:58:53;;;;;;;0.20;0.10;;;;;;;;;;4998089;28;20488;-79
2023/07/22 04:01:19;;;;;;;0.20;0.10;;;;;;;;;;5003436;28;20039;-79
2023/07/22 04:03:45;;;;;;;0.20;0.10;;;;;;;;;;5010313;28;20045;-79
2023/07/22 04:06:11;;;;;;;0.45;0.20;;;;;;;;;;5012686;28;20076;-79
2023/07/22 04:08:37;;;;;;;0.20;0.10;;;;;;;;;;5011654;28;20132;-80
2023/07/22 04:11:03;;;;;;;0.63;0.35;;;;;;;;;;5018975;28;20053;-79
2023/07/22 04:13:29;;;;;;;0.22;0.22;;;;;;;;;;5000611;28;20032;-80
2023/07/22 04:15:55;;;;;;;0.40;0.40;;;;;;;;;;5004414;28;20119;-80
2023/07/22 04:18:22;;;;;;;0.20;0.00;;;;;;;;;;5015187;28;20142;-79
2023/07/22 04:20:48;;;;;;;0.20;0.10;;;;;;;;;;5026437;28;20096;-79
2023/07/22 04:23:14;;;;;;;0.20;0.15;;;;;;;;;;5001283;28;20467;-79
2023/07/22 04:25:40;;;;;;;0.20;0.10;;;;;;;;;;4993562;28;20588;-79
2023/07/22 04:28:07;;;;;;;0.20;0.10;;;;;;;;;;5001606;28;20119;-80
2023/07/22 04:30:34;;;;;;;0.20;0.10;;;;;;;;;;5000534;28;20553;-79
2023/07/22 04:33:00;;;;;;;1.20;0.75;;;;;;;;;;5014226;28;20043;-80
2023/07/22 04:35:26;;;;;;;0.20;0.10;;;;;;;;;;5009825;28;20045;-79
2023/07/22 04:37:52;;;;;;;0.30;0.30;;;;;;;;;;4997137;28;20366;-79
2023/07/22 04:40:18;;;;;;;0.20;0.20;;;;;;;;;;5022752;28;20096;-80
2023/07/22 04:42:44;;;;;;;0.20;0.10;;;;;;;;;;5013459;28;20468;-80
2023/07/22 04:45:11;;;;;;;0.20;0.10;;;;;;;;;;5012792;28;20046;-78
2023/07/22 04:47:38;;;;;;;0.30;0.20;;;;;;;;;;4991264;28;20052;-79
2023/07/22 04:50:08;;;;;;;0.20;0.10;;;;;;;;;;5006514;28;20446;-80
2023/07/22 04:52:34;;;;;;;0.20;0.10;;;;;;;;;;4993873;28;20041;-80
2023/07/22 04:55:01;;;;;;;0.30;0.20;;;;;;;;;;4995258;28;20044;-80
2023/07/22 04:57:27;;;;;;;0.30;0.28;;;;;;;;;;5012736;28;20037;-80
2023/07/22 04:59:53;;;;;;;0.20;0.10;;;;;;;;;;4997156;28;20044;-81
2023/07/22 05:02:20;;;;;;;0.20;0.10;;;;;;;;;;5004111;28;20453;-81
2023/07/22 05:04:46;;;;;;;0.20;0.15;;;;;;;;;;5021219;28;20041;-81
2023/07/22 05:07:12;;;;;;;0.20;0.10;;;;;;;;;;4997622;28;20409;-81
2023/07/22 05:09:38;;;;;;;0.20;0.10;;;;;;;;;;5004100;28;20025;-80
2023/07/22 05:12:04;;;;;;;0.20;0.10;;;;;;;;;;5012108;28;20041;-80
2023/07/22 05:14:30;;;;;;;0.20;0.20;;;;;;;;;;5014185;28;20036;-79
2023/07/22 05:16:56;;;;;;;0.20;0.10;;;;;;;;;;5026954;28;20032;-80
2023/07/22 05:19:22;;;;;;;0.20;0.20;;;;;;;;;;5018565;28;20045;-80
2023/07/22 05:21:48;;;;;;;0.20;0.17;;;;;;;;;;5040182;23;20045;-84
2023/07/22 05:24:14;;;;;;;0.32;0.32;;;;;;;;;;5022914;28;20037;-81
2023/07/22 05:26:40;;;;;;;0.30;0.17;;;;;;;;;;5024973;28;20029;-81
2023/07/22 05:29:07;;;;;;;1.05;0.40;;;;;;;;;;5016313;28;20071;-81
2023/07/22 05:31:33;;;;;;;0.20;0.00;;;;;;;;;;5005013;28;20457;-80
2023/07/22 05:33:59;;;;;;;0.20;0.10;;;;;;;;;;5002780;28;20038;-81
2023/07/22 05:36:25;;;;;;;0.20;0.10;;;;;;;;;;5000948;28;20068;-81
2023/07/22 05:38:52;;;;;;;0.20;0.00;;;;;;;;;;5021631;28;20046;-81
2023/07/22 05:41:18;;;;;;;0.20;0.20;;;;;;;;;;5003656;28;20044;-81
2023/07/22 05:43:44;;;;;;;0.20;0.10;;;;;;;;;;5007416;28;20176;-81
2023/07/22 05:46:10;;;;;;;0.20;0.10;;;;;;;;;;5014082;28;20122;-80
2023/07/22 05:48:36;;;;;;;0.35;0.25;;;;;;;;;;5023933;28;20448;-81
2023/07/22 05:51:02;;;;;;;0.20;0.10;;;;;;;;;;4994804;28;20036;-83
2023/07/22 05:53:28;;;;;;;0.52;0.40;;;;;;;;;;5001063;28;20037;-84
2023/07/22 05:55:54;;;;;;;0.20;0.20;;;;;;;;;;4991573;28;20586;-83
2023/07/22 05:58:20;;;;;;;0.20;0.08;;;;;;;;;;5002991;28;20053;-81
2023/07/22 06:00:46;;;;;;;0.20;0.10;;;;;;;;;;4983274;28;20064;-80
2023/07/22 06:03:13;;;;;;;0.20;0.17;;;;;;;;;;5000508;28;20068;-82
2023/07/22 06:05:39;;;;;;;0.20;0.10;;;;;;;;;;5000246;28;20052;-82
2023/07/22 06:08:05;;;;;;;0.20;0.10;;;;;;;;;;4999734;28;20041;-82
2023/07/22 06:10:31;;;;;;;0.20;0.10;;;;;;;;;;5004830;28;20037;-82
2023/07/22 06:12:58;;;;;;;0.20;0.10;;;;;;;;;;5003157;28;20037;-83
2023/07/22 06:15:24;;;;;;;0.20;0.20;;;;;;;;;;5004770;28;20133;-82
2023/07/22 06:17:49;;;;;;;0.20;0.10;;;;;;;;;;5007606;28;20464;-81
2023/07/22 06:20:16;;;;;;;0.20;0.10;;;;;;;;;;5002701;28;20044;-83
2023/07/22 06:22:42;;;;;;;0.20;0.10;;;;;;;;;;5008969;28;20134;-83
2023/07/22 06:25:08;;;;;;;0.20;0.10;;;;;;;;;;5003146;28;20041;-82
2023/07/22 06:27:35;;;;;;;0.63;0.63;;;;;;;;;;4996673;28;20045;-83
2023/07/22 06:30:01;;;;;;;2.75;0.30;;;;;;;;;;5004426;28;20050;-82
2023/07/22 06:32:29;;;;;;;0.20;0.10;;;;;;;;;;5000139;28;20076;-84
2023/07/22 06:34:56;;;;;;;0.20;0.00;;;;;;;;;;5007420;28;20045;-81
2023/07/22 06:37:22;;;;;;;0.82;0.35;;;;;;;;;;5000418;28;20037;-82
2023/07/22 06:39:48;;;;;;;0.20;0.10;;;;;;;;;;4996891;28;20038;-82
2023/07/22 06:42:14;;;;;;;0.20;0.05;;;;;;;;;;5011635;28;20464;-83
2023/07/22 06:44:40;;;;;;;0.20;0.00;;;;;;;;;;4992102;28;20327;-81
2023/07/22 06:47:07;;;;;;;0.20;0.10;;;;;;;;;;5011819;28;20064;-82
2023/07/22 06:49:33;;;;;;;0.40;0.20;;;;;;;;;;4999856;28;20050;-82
2023/07/22 06:51:59;;;;;;;0.52;0.52;;;;;;;;;;5013414;28;20029;-81
2023/07/22 06:54:25;;;;;;;0.20;0.10;;;;;;;;;;4990675;28;20422;-82
2023/07/22 06:56:51;;;;;;;0.20;0.15;;;;;;;;;;5010498;28;20037;-81
2023/07/22 06:59:17;;;;;;;0.20;0.20;;;;;;;;;;5028082;28;20052;-81
2023/07/22 07:01:43;;;;;;;0.20;0.10;;;;;;;;;;5020555;28;20039;-82
2023/07/22 07:04:09;;;;;;;0.20;0.10;;;;;;;;;;5014219;28;20464;-82
2023/07/22 07:06:35;;;;;;;0.20;0.20;;;;;;;;;;4996352;28;20045;-82
2023/07/22 07:09:01;;;;;;;0.20;0.13;;;;;;;;;;5007419;28;20117;-82
2023/07/22 07:11:28;;;;;;;0.40;0.40;;;;;;;;;;5011734;28;20048;-81
2023/07/22 07:13:54;;;;;;;0.20;0.10;;;;;;;;;;5010529;28;20080;-83
2023/07/22 07:16:24;;;;;;;0.20;0.10;;;;;;;;;;5008999;28;20048;-82
2023/07/22 07:18:51;;;;;;;0.43;0.30;;;;;;;;;;5013612;28;20597;-82
2023/07/22 07:21:17;;;;;;;0.52;0.20;;;;;;;;;;5012709;28;20045;-84
2023/07/22 07:23:43;;;;;;;0.47;0.40;;;;;;;;;;5013329;28;20052;-81
2023/07/22 07:26:09;;;;;;;0.20;0.10;;;;;;;;;;5013248;28;20033;-80
2023/07/22 07:28:35;;;;;;;0.20;0.10;;;;;;;;;;5008575;28;20045;-83
2023/07/22 07:31:01;;;;;;;0.20;0.10;;;;;;;;;;4993838;28;20045;-81
2023/07/22 07:33:27;;;;;;;0.35;0.22;;;;;;;;;;5007949;28;20047;-81
2023/07/22 07:35:53;;;;;;;0.22;0.22;;;;;;;;;;5012412;28;20119;-80
2023/07/22 07:38:19;;;;;;;0.28;0.28;;;;;;;;;;5011444;28;20064;-82
2023/07/22 07:40:45;;;;;;;0.35;0.32;;;;;;;;;;4995084;28;20493;-81
2023/07/22 07:43:11;;;;;;;0.20;0.20;;;;;;;;;;5014034;28;20116;-81
2023/07/22 07:45:39;;;;;;;0.20;0.10;;;;;;;;;;4995418;28;20125;-79
2023/07/22 07:48:08;;;;;;;0.20;0.10;;;;;;;;;;5007019;28;20449;-80
2023/07/22 07:50:34;;;;;;;0.20;0.10;;;;;;;;;;5025303;28;20506;-82
2023/07/22 07:53:00;;;;;;;0.20;0.10;;;;;;;;;;5011299;28;20041;-81
2023/07/22 07:55:26;;;;;;;0.20;0.10;;;;;;;;;;5010349;28;20092;-82
2023/07/22 07:57:52;;;;;;;0.20;0.10;;;;;;;;;;5014599;28;20033;-82
2023/07/22 08:00:20;;;;;;;0.20;0.10;;;;;;;;;;5017274;28;20498;-80
2023/07/22 08:02:46;;;;;;;0.20;0.17;;;;;;;;;;5014991;28;20075;-80
2023/07/22 08:05:12;;;;;;;0.25;0.17;;;;;;;;;;4998621;28;20073;-82
2023/07/22 08:07:39;;;;;;;0.20;0.20;;;;;;;;;;5017592;28;20041;-83
2023/07/22 08:10:07;;;;;;;0.20;0.10;;;;;;;;;;5016409;28;20037;-81
2023/07/22 08:12:33;;;;;;;0.20;0.20;;;;;;;;;;5016813;28;20093;-82
2023/07/22 08:14:59;;;;;;;0.35;0.22;;;;;;;;;;5016099;28;20099;-82
2023/07/22 08:17:25;;;;;;;0.20;0.10;;;;;;;;;;4999953;28;20037;-81
2023/07/22 08:19:52;;;;;;;0.20;0.10;;;;;;;;;;5009436;28;20132;-82
2023/07/22 08:22:18;;;;;;;0.30;0.30;;;;;;;;;;5016783;28;20075;-82
2023/07/22 08:24:44;;;;;;;0.25;0.10;;;;;;;;;;5011546;28;20137;-79
2023/07/22 08:27:10;;;;;;;0.32;0.32;;;;;;;;;;5016458;28;20037;-83
2023/07/22 08:29:37;;;;;;;0.20;0.10;;;;;;;;;;5014308;28;20038;-79
2023/07/22 08:32:03;;;;;;;0.30;0.20;;;;;;;;;;5015594;28;20037;-82
2023/07/22 08:34:29;;;;;;;0.77;0.77;;;;;;;;;;5016935;28;20033;-82
2023/07/22 08:36:55;;;;;;;0.20;0.20;;;;;;;;;;5014370;28;20139;-81
2023/07/22 08:39:21;;;;;;;0.63;0.63;;;;;;;;;;5018672;28;20056;-82
2023/07/22 08:41:50;;;;;;;0.20;0.10;;;;;;;;;;5000265;28;20045;-82
2023/07/22 08:44:20;;;;;;;0.20;0.20;;;;;;;;;;4999660;28;20081;-82
2023/07/22 08:46:47;;;;;;;0.20;0.13;;;;;;;;;;5016749;28;20037;-81
2023/07/22 08:49:14;;;;;;;0.20;0.20;;;;;;;;;;5014121;28;20049;-83
2023/07/22 08:51:40;;;;;;;0.20;0.05;;;;;;;;;;5011945;28;20676;-81
2023/07/22 08:54:06;;;;;;;0.47;0.47;;;;;;;;;;5010854;28;20057;-82
2023/07/22 08:56:32;;;;;;;0.30;0.30;;;;;;;;;;5015340;28;20033;-80
2023/07/22 08:58:58;;;;;;;0.30;0.22;;;;;;;;;;4999330;28;20510;-82
2023/07/22 09:01:24;;;;;;;0.25;0.20;;;;;;;;;;4998833;28;20049;-81
2023/07/22 09:03:52;;;;;;;0.28;0.28;;;;;;;;;;5016471;28;20540;-83
2023/07/22 09:06:19;;;;;;;0.20;0.10;;;;;;;;;;5013743;28;20510;-82
2023/07/22 09:08:45;;;;;;;0.20;0.10;;;;;;;;;;5015161;28;20045;-81
2023/07/22 09:11:11;;;;;;;0.20;0.10;;;;;;;;;;5014887;28;20040;-83
2023/07/22 09:13:39;;;;;;;0.20;0.10;;;;;;;;;;5011073;28;20037;-83
2023/07/22 09:16:07;;;;;;;0.20;0.05;;;;;;;;;;5014457;28;20087;-82
2023/07/22 09:18:34;;;;;;;0.20;0.10;;;;;;;;;;5006138;28;20100;-84
2023/07/22 09:21:00;;;;;;;0.20;0.10;;;;;;;;;;5011175;28;20121;-83
2023/07/22 09:23:33;;;;;;;0.25;0.25;;;;;;;;;;5013104;28;20132;-81
2023/07/22 09:26:08;;;;;;;0.30;0.30;;;;;;;;;;4998475;28;20029;-81
2023/07/22 09:28:48;;;;;;;0.20;0.15;;;;;;;;;;5023035;28;20466;-83
2023/07/22 09:31:14;;;;;;;0.65;0.65;;;;;;;;;;4994200;28;20124;-82
2023/07/22 09:33:40;;;;;;;0.20;0.10;;;;;;;;;;5015174;28;20065;-82
2023/07/22 09:36:06;;;;;;;0.38;0.38;;;;;;;;;;4999282;28;20084;-83
2023/07/22 09:38:32;;;;;;;0.20;0.10;;;;;;;;;;5015926;28;20044;-83
2023/07/22 09:40:58;;;;;;;0.40;0.22;;;;;;;;;;5004405;28;20038;-82
2023/07/22 09:43:24;;;;;;;0.32;0.30;;;;;;;;;;5012739;28;20129;-83
2023/07/22 09:45:50;;;;;;;0.20;0.10;;;;;;;;;;5029030;28;20042;-82
2023/07/22 09:48:16;;;;;;;0.40;0.40;;;;;;;;;;5013279;28;20045;-82
2023/07/22 09:50:42;;;;;;;0.20;0.10;;;;;;;;;;5010832;28;20041;-82
2023/07/22 09:53:09;;;;;;;0.20;0.10;;;;;;;;;;5014923;28;20048;-81
2023/07/22 09:55:35;;;;;;;0.20;0.10;;;;;;;;;;5015339;28;20037;-82
2023/07/22 09:58:02;;;;;;;0.20;0.10;;;;;;;;;;5012751;28;20037;-83
2023/07/22 10:00:34;;;;;;;0.43;0.30;;;;;;;;;;5011594;28;20037;-82
2023/07/22 10:03:00;;;;;;;;;;;;;;;;;;5015762;28;20149;-82
2023/07/22 10:05:27;;;;;;;0.20;0.13;;;;;;;;;;5012426;28;19961;-84
2023/07/22 10:07:54;;;;;;;0.20;0.00;;;;;;;;;;5014902;28;20079;-81
2023/07/22 10:10:23;;;;;;;0.20;0.00;;;;;;;;;;5014527;28;20377;-83
2023/07/22 10:12:49;;;;;;;0.20;0.00;;;;;;;;;;5016671;28;20048;-83
2023/07/22 10:15:17;;;;;;;0.20;0.00;;;;;;;;;;5012446;28;20072;-82
2023/07/22 10:17:46;;;;;;;0.20;0.00;;;;;;;;;;5010163;28;20041;-84
2023/07/22 10:20:16;;;;;;;0.20;0.05;;;;;;;;;;5014562;28;20056;-82
2023/07/22 10:22:44;;;;;;;0.20;0.10;;;;;;;;;;5013926;28;20151;-83
2023/07/22 10:25:11;;;;;;;0.20;0.10;;;;;;;;;;5013916;28;20049;-82
2023/07/22 10:27:41;;;;;;;0.20;0.10;;;;;;;;;;5015313;28;20060;-83
2023/07/22 10:30:08;;;;;;;0.20;0.10;;;;;;;;;;4992761;28;20064;-82
2023/07/22 10:32:38;;;;;;;1.33;0.32;;;;;;;;;;4995032;28;20045;-82
2023/07/22 10:35:05;;;;;;;0.35;0.35;;;;;;;;;;5009269;28;20430;-83
2023/07/22 10:37:32;;;;;;;0.20;0.10;;;;;;;;;;4998725;28;20071;-81
2023/07/22 10:40:18;;;;;;;0.20;0.10;;;;;;;;;;5012888;28;20041;-84
2023/07/22 10:42:51;;;;;;;0.20;0.10;;;;;;;;;;5012619;28;20056;-83
2023/07/22 10:45:28;;;;;;;0.20;0.10;;;;;;;;;;5013884;28;20038;-84
2023/07/22 10:48:14;;;;;;;0.20;0.10;;;;;;;;;;5011847;28;20069;-83
2023/07/22 10:50:41;;;;;;;0.20;0.10;;;;;;;;;;4993966;28;20029;-83
2023/07/22 10:53:11;;;;;;;0.20;0.10;;;;;;;;;;4995938;28;20034;-82
2023/07/22 10:55:57;;;;;;;0.20;0.10;;;;;;;;;;5013240;28;20045;-82
2023/07/22 10:58:24;;;;;;;0.20;0.10;;;;;;;;;;5014537;28;20447;-81
2023/07/22 11:00:50;;;;;;;0.20;0.10;;;;;;;;;;5014307;28;20553;-82
2023/07/22 11:03:18;;;;;;;0.20;0.10;;;;;;;;;;5015261;28;20069;-82
2023/07/22 11:05:52;;;;;;;0.20;0.10;;;;;;;;;;5010750;28;20045;-82
2023/07/22 11:08:35;;;;;;;0.22;0.10;;;;;;;;;;5007590;28;20044;-81
2023/07/22 11:11:01;;;;;;;0.20;0.10;;;;;;;;;;5012010;28;20041;-81
2023/07/22 11:13:28;;;;;;;0.20;0.10;;;;;;;;;;5012899;28;20029;-82
2023/07/22 11:15:58;;;;;;;1.00;0.20;;;;;;;;;;5010502;28;20029;-82
2023/07/22 11:18:35;;;;;;;0.20;0.10;;;;;;;;;;4999023;28;20569;-82
2023/07/22 11:21:01;;;;;;;0.20;0.17;;;;;;;;;;5025857;22;20037;-78
2023/07/22 11:23:27;;;;;;;0.20;0.10;;;;;;;;;;5074476;28;20043;-80
2023/07/22 11:25:54;;;;;;;0.20;0.00;;;;;;;;;;5061484;28;20416;-81
2023/07/22 11:28:20;;;;;;;0.20;0.20;;;;;;;;;;5051745;28;20523;-81
2023/07/22 11:30:46;;;;;;;0.20;0.10;;;;;;;;;;5054279;28;20454;-81
2023/07/22 11:33:12;;;;;;;0.20;0.10;;;;;;;;;;5056227;28;20044;-81
2023/07/22 11:35:38;;;;;;;0.20;0.10;;;;;;;;;;5054168;28;20043;-83
2023/07/22 11:38:04;;;;;;;0.20;0.10;;;;;;;;;;5054444;28;20036;-86
2023/07/22 11:40:50;;;;;;;5.32;0.40;;;;;;;;;;5043070;28;20476;-85
2023/07/22 11:43:32;;;;;;;0.20;0.03;;;;;;;;;;5066260;28;20044;-85
2023/07/22 11:45:58;;;;;;;0.20;0.00;;;;;;;;;;5038767;28;20040;-85
2023/07/22 11:48:24;;;;;;;0.20;0.10;;;;;;;;;;5028515;28;20036;-84
2023/07/22 11:50:50;;;;;;;0.32;0.20;;;;;;;;;;5037684;28;20082;-82
2023/07/22 11:53:17;;;;;;;0.20;0.05;;;;;;;;;;5036702;28;20041;-83
2023/07/22 11:55:43;;;;;;;0.45;0.22;;;;;;;;;;5037563;28;20033;-81
2023/07/22 11:58:09;;;;;;;0.28;0.10;;;;;;;;;;5052476;28;20389;-82
2023/07/22 12:00:35;;;;;;;0.32;0.32;;;;;;;;;;5052046;28;20491;-84
2023/07/22 12:03:10;;;;;;;0.20;0.10;;;;;;;;;;5049484;28;20499;-84
2023/07/22 12:05:37;;;;;;;0.20;0.10;;;;;;;;;;5034448;28;20037;-84
2023/07/22 12:08:04;;;;;;;0.20;0.10;;;;;;;;;;5032416;28;20465;-83
2023/07/22 12:10:30;;;;;;;0.30;0.20;;;;;;;;;;5027759;28;20062;-84
2023/07/22 12:13:00;;;;;;;0.20;0.13;;;;;;;;;;5037158;28;20040;-83
2023/07/22 12:15:26;;;;;;;0.20;0.10;;;;;;;;;;5045615;28;20120;-84
2023/07/22 12:17:54;;;;;;;0.95;0.32;;;;;;;;;;5035771;28;20306;-83
2023/07/22 12:20:25;;;;;;;0.20;0.10;;;;;;;;;;5056252;28;20076;-84
2023/07/22 12:22:51;;;;;;;0.20;0.13;;;;;;;;;;5029000;28;20525;-83
2023/07/22 12:25:17;;;;;;;0.20;0.00;;;;;;;;;;5035813;28;20634;-83
2023/07/22 12:27:44;;;;;;;0.20;0.10;;;;;;;;;;5054163;28;20132;-81
2023/07/22 12:30:10;;;;;;;0.20;0.10;;;;;;;;;;5033657;28;20695;-81
2023/07/22 12:32:36;;;;;;;0.20;0.10;;;;;;;;;;5033232;28;20039;-82
2023/07/22 12:35:03;;;;;;;0.28;0.15;;;;;;;;;;5051374;28;20033;-81
2023/07/22 12:37:29;;;;;;;0.20;0.10;;;;;;;;;;5053381;28;20072;-81
2023/07/22 12:39:56;;;;;;;0.22;0.13;;;;;;;;;;5038111;28;20041;-81
2023/07/22 12:42:22;;;;;;;0.20;0.10;;;;;;;;;;5058861;28;20041;-80
2023/07/22 12:44:48;;;;;;;0.20;0.10;;;;;;;;;;5042730;28;20036;-83
2023/07/22 12:47:14;;;;;;;0.30;0.25;;;;;;;;;;5040254;28;20055;-82
2023/07/22 12:49:40;;;;;;;0.20;0.10;;;;;;;;;;5059744;28;20203;-81
2023/07/22 12:52:09;;;;;;;0.32;0.30;;;;;;;;;;5039690;28;20036;-82
2023/07/22 12:54:38;;;;;;;0.30;0.20;;;;;;;;;;5043677;28;20032;-82
2023/07/22 12:57:04;;;;;;;0.20;0.10;;;;;;;;;;5064167;28;20040;-82
2023/07/22 12:59:30;;;;;;;0.20;0.10;;;;;;;;;;5047224;28;20123;-83
2023/07/22 13:01:57;;;;;;;0.20;0.20;;;;;;;;;;5045742;28;20079;-82
2023/07/22 13:04:24;;;;;;;0.20;0.10;;;;;;;;;;5069799;28;20067;-81
2023/07/22 13:06:51;;;;;;;0.38;0.30;;;;;;;;;;5040223;28;20050;-79
2023/07/22 13:09:17;;;;;;;0.20;0.10;;;;;;;;;;5039782;28;20127;-82
2023/07/22 13:11:43;;;;;;;0.20;0.20;;;;;;;;;;5059461;28;20476;-83
2023/07/22 13:14:10;;;;;;;0.28;0.13;;;;;;;;;;5046231;28;20040;-81
2023/07/22 13:16:36;;;;;;;0.80;0.77;;;;;;;;;;5040001;28;20033;-83
2023/07/22 13:19:03;;;;;;;0.22;0.22;;;;;;;;;;5054794;28;20409;-82
2023/07/22 13:21:29;;;;;;;0.40;0.38;;;;;;;;;;5036548;28;20036;-83
2023/07/22 13:23:55;;;;;;;0.20;0.10;;;;;;;;;;5049418;28;20045;-83
2023/07/22 13:26:24;;;;;;;0.30;0.20;;;;;;;;;;5052312;28;20139;-83
2023/07/22 13:28:50;;;;;;;0.20;0.10;;;;;;;;;;5051990;28;20115;-84
2023/07/22 13:31:19;;;;;;;0.25;0.25;;;;;;;;;;5052763;28;20037;-83
2023/07/22 13:33:45;;;;;;;0.65;0.25;;;;;;;;;;5042636;28;20025;-83
2023/07/22 13:36:13;;;;;;;0.20;0.10;;;;;;;;;;5072970;28;20037;-81
2023/07/22 13:38:39;;;;;;;0.30;0.28;;;;;;;;;;5049275;28;20058;-83
2023/07/22 13:41:05;;;;;;;0.20;0.20;;;;;;;;;;5049376;28;20033;-83
2023/07/22 13:43:31;;;;;;;0.20;0.10;;;;;;;;;;5043423;28;20044;-81
2023/07/22 13:45:57;;;;;;;0.20;0.15;;;;;;;;;;5059866;28;20039;-81
2023/07/22 13:48:24;;;;;;;0.20;0.10;;;;;;;;;;5073980;28;20041;-81
2023/07/22 13:50:50;;;;;;;0.30;0.30;;;;;;;;;;5056970;28;20028;-84
2023/07/22 13:53:16;;;;;;;0.20;0.10;;;;;;;;;;5055580;28;20040;-82
2023/07/22 13:55:42;;;;;;;0.20;0.10;;;;;;;;;;5039052;28;20074;-82
2023/07/22 13:58:08;;;;;;;0.73;0.32;;;;;;;;;;5036427;28;20037;-81
2023/07/22 14:00:34;;;;;;;0.20;0.10;;;;;;;;;;5075571;28;21797;-81
2023/07/22 14:03:00;;;;;;;0.30;0.22;;;;;;;;;;5069153;28;20090;-82
2023/07/22 14:05:26;;;;;;;0.20;0.10;;;;;;;;;;5038449;28;20051;-80
2023/07/22 14:07:52;;;;;;;0.20;0.10;;;;;;;;;;5040692;28;20037;-81
2023/07/22 14:10:18;;;;;;;0.20;0.10;;;;;;;;;;5035316;28;20040;-79
2023/07/22 14:12:44;;;;;;;0.20;0.10;;;;;;;;;;5049343;28;20037;-80
2023/07/22 14:15:11;;;;;;;1.25;1.15;;;;;;;;;;5035322;28;20051;-80
2023/07/22 14:17:39;;;;;;;0.22;0.20;;;;;;;;;;5058443;28;20043;-80
2023/07/22 14:20:06;;;;;;;0.20;0.10;;;;;;;;;;5055524;28;20405;-80
2023/07/22 14:22:33;;;;;;;0.32;0.32;;;;;;;;;;5049092;28;20125;-81
2023/07/22 14:24:59;;;;;;;0.28;0.20;;;;;;;;;;5038883;28;20032;-83
2023/07/22 14:27:25;;;;;;;0.20;0.10;;;;;;;;;;5050640;28;20052;-81
2023/07/22 14:29:51;;;;;;;0.40;0.25;;;;;;;;;;5034134;28;20047;-79
2023/07/22 14:32:17;;;;;;;0.20;0.00;;;;;;;;;;5039038;28;20159;-82
2023/07/22 14:34:43;;;;;;;0.40;0.40;;;;;;;;;;5036024;28;20067;-82
2023/07/22 14:37:09;;;;;;;0.20;0.10;;;;;;;;;;5036781;28;20123;-83
2023/07/22 14:39:35;;;;;;;0.38;0.20;;;;;;;;;;5042496;28;20037;-81
2023/07/22 14:42:01;;;;;;;0.20;0.20;;;;;;;;;;5039512;28;20040;-83